Time;durP1;ratioP1;P1;durP2;ratioP2;P2;SDS_P1;SDS_P2;PMS_P1;PMS_P2;Temp;Humidity;BMP_temperature;BMP_pressure;BME280_temperature;BME280_humidity;BME280_pressure;Samples;Min_cycle;Max_cycle;Signal;HPM_P1;HPM_P2
2022/09/30 00:01:43;;;;;;;4.40;2.80;;;;;;;16.87;68.39;99155.22;25056;1315;3026416;-65
2022/09/30 00:04:14;;;;;;;6.20;3.50;;;;;;;17.30;67.17;99155.32;25008;1318;3026336;-63
2022/09/30 00:06:44;;;;;;;10.50;4.10;;;;;;;17.40;66.42;99158.08;25042;1315;3054744;-63
2022/09/30 00:09:14;;;;;;;6.80;4.00;;;;;;;17.30;67.43;99161.39;24975;1318;3026871;-64
2022/09/30 00:11:45;;;;;;;6.90;4.20;;;;;;;17.26;67.74;99158.23;25038;1317;3026569;-62
2022/09/30 00:14:16;;;;;;;8.30;4.30;;;;;;;16.99;68.48;99160.30;24987;1316;3026513;-64
2022/09/30 00:16:46;;;;;;;6.90;4.40;;;;;;;16.81;69.61;99168.69;25037;1316;3026777;-64
2022/09/30 00:19:15;;;;;;;8.90;4.60;;;;;;;16.63;70.13;99170.67;25048;1316;3026434;-65
2022/09/30 00:21:44;;;;;;;6.60;4.50;;;;;;;16.50;71.16;99162.43;25033;1318;3051715;-64
2022/09/30 00:24:13;;;;;;;6.80;4.30;;;;;;;16.42;71.65;99160.66;25052;1315;3026768;-64
2022/09/30 00:26:42;;;;;;;3.90;2.50;;;;;;;16.39;72.07;99161.84;24991;1318;3056709;-65
2022/09/30 00:29:11;;;;;;;6.40;3.60;;;;;;;16.81;71.31;99160.52;25039;1316;3026738;-61
2022/09/30 00:31:40;;;;;;;8.00;3.90;;;;;;;17.28;69.59;99161.02;24997;1318;3054140;-64
2022/09/30 00:34:12;;;;;;;6.50;4.60;;;;;;;17.24;69.63;99158.60;25043;1317;3026451;-62
2022/09/30 00:36:42;;;;;;;8.10;5.20;;;;;;;17.00;70.84;99153.17;25064;1318;3051480;-64
2022/09/30 00:39:17;;;;;;;9.00;4.90;;;;;;;16.85;71.16;99149.35;25113;1315;3028755;-62
2022/09/30 00:41:47;;;;;;;8.80;5.20;;;;;;;16.68;71.94;99154.81;25047;1316;3057627;-60
2022/09/30 00:44:52;;;;;;;10.10;6.60;;;;;;;16.57;72.60;99157.19;25064;1318;3026749;-63
2022/09/30 00:47:36;;;;;;;9.40;5.50;;;;;;;16.43;73.74;99152.98;25075;1318;3053402;-62
2022/09/30 00:50:14;;;;;;;;;;;;;;;16.31;75.17;99156.55;25074;1318;3051902;-62
2022/09/30 00:52:44;;;;;;;6.90;4.30;;;;;;;16.83;73.90;99153.45;25052;1318;3071015;-63
2022/09/30 00:55:33;;;;;;;13.20;5.60;;;;;;;17.09;72.63;99151.81;25095;1317;3026527;-62
2022/09/30 00:58:03;;;;;;;9.40;5.50;;;;;;;17.00;73.05;99153.84;25030;1318;3055334;-67
2022/09/30 01:00:32;;;;;;;7.40;5.10;;;;;;;16.91;73.74;99155.91;24982;1318;3028856;-64
2022/09/30 01:03:01;;;;;;;10.60;6.00;;;;;;;16.69;74.94;99155.30;25109;1318;3026215;-64
2022/09/30 01:05:30;;;;;;;12.20;6.20;;;;;;;16.50;76.12;99152.86;24988;1318;3054397;-64
2022/09/30 01:07:59;;;;;;;11.20;6.20;;;;;;;16.33;77.44;99148.08;25020;1317;3026442;-66
2022/09/30 01:10:28;;;;;;;8.90;4.10;;;;;;;16.34;77.80;99149.24;25029;1318;3050803;-63
2022/09/30 01:12:58;;;;;;;11.40;4.40;;;;;;;16.75;76.95;99152.39;25029;1318;3026950;-63
2022/09/30 01:15:45;;;;;;;9.70;5.80;;;;;;;17.08;75.99;99151.91;25071;1316;3026538;-65
2022/09/30 01:18:25;;;;;;;9.50;5.90;;;;;;;17.03;76.50;99153.02;25017;1318;3048872;-62
2022/09/30 01:21:43;;;;;;;10.40;5.80;;;;;;;16.86;76.87;99148.95;25046;1318;3052550;-61
2022/09/30 01:24:38;;;;;;;12.10;7.10;;;;;;;16.55;78.75;99154.77;24894;1321;3052309;-64
2022/09/30 01:27:09;;;;;;;13.30;7.00;;;;;;;16.34;79.75;99150.09;24947;1322;3058673;-64
2022/09/30 01:30:02;;;;;;;9.70;4.20;;;;;;;16.13;81.40;99156.33;24969;1318;3026901;-64
2022/09/30 01:32:59;;;;;;;9.90;5.50;;;;;;;16.73;79.39;99152.04;25070;1317;3055498;-62
2022/09/30 01:35:53;;;;;;;11.90;5.40;;;;;;;16.99;77.52;99147.09;25134;1317;3054103;-62
2022/09/30 01:38:41;;;;;;;13.60;6.70;;;;;;;16.91;77.78;99153.06;25008;1318;3068686;-63
2022/09/30 01:41:12;;;;;;;12.00;7.00;;;;;;;16.60;79.12;99161.56;25002;1318;3051179;-63
2022/09/30 01:43:57;;;;;;;14.10;7.70;;;;;;;16.34;80.76;99166.50;25085;1316;3026371;-62
2022/09/30 01:46:40;;;;;;;9.80;5.20;;;;;;;16.23;81.70;99165.58;25038;1316;3055627;-64
2022/09/30 01:49:11;;;;;;;13.10;6.90;;;;;;;16.76;80.20;99159.56;25116;1318;3056708;-63
2022/09/30 01:51:50;;;;;;;17.30;8.30;;;;;;;16.91;79.61;99158.96;25099;1318;3028550;-63
2022/09/30 01:54:35;;;;;;;18.60;8.80;;;;;;;16.58;80.77;99168.64;25059;1316;3053364;-63
2022/09/30 01:57:16;;;;;;;22.00;10.80;;;;;;;16.45;81.57;99171.92;25032;1318;3054181;-63
2022/09/30 01:59:49;;;;;;;25.40;11.00;;;;;;;16.22;82.74;99168.14;25040;1316;3068491;-63
2022/09/30 02:02:20;;;;;;;18.20;6.60;;;;;;;16.12;83.75;99169.86;25033;1316;3026842;-62
2022/09/30 02:04:56;;;;;;;15.20;8.40;;;;;;;16.46;83.40;99162.48;25018;1318;3026192;-63
2022/09/30 02:07:37;;;;;;;20.80;10.40;;;;;;;16.65;82.51;99155.73;25049;1317;3052093;-63
2022/09/30 02:10:18;;;;;;;24.10;12.20;;;;;;;16.62;82.49;99149.83;25101;1318;3056467;-64
2022/09/30 02:12:53;;;;;;;21.50;11.90;;;;;;;16.43;83.52;99157.23;25104;1315;3050072;-63
2022/09/30 02:15:24;;;;;;;28.90;14.00;;;;;;;16.27;84.38;99165.20;25034;1315;3026878;-62
2022/09/30 02:17:57;;;;;;;22.10;9.40;;;;;;;15.99;86.71;99174.93;25065;1315;3028338;-63
2022/09/30 02:20:30;;;;;;;23.40;11.50;;;;;;;16.44;85.62;99179.04;25071;1318;3027165;-62
2022/09/30 02:23:03;;;;;;;29.50;14.00;;;;;;;16.71;83.90;99178.23;25099;1315;3026725;-63
2022/09/30 02:25:34;;;;;;;27.30;14.10;;;;;;;16.64;84.42;99179.61;25050;1315;3026433;-62
2022/09/30 02:28:07;;;;;;;31.20;15.70;;;;;;;16.56;84.51;99182.59;25053;1315;3027018;-62
2022/09/30 02:30:38;;;;;;;31.50;16.40;;;;;;;16.32;86.11;99193.75;25049;1315;3026659;-62
2022/09/30 02:33:19;;;;;;;21.00;9.10;;;;;;;16.22;87.26;99190.55;25042;1315;3026502;-62
2022/09/30 02:35:51;;;;;;;25.90;11.30;;;;;;;16.73;85.94;99186.00;25052;1315;3053979;-63
2022/09/30 02:38:26;;;;;;;31.40;14.00;;;;;;;17.02;83.95;99184.33;25046;1315;3027579;-63
2022/09/30 02:40:57;;;;;;;27.00;14.00;;;;;;;16.75;85.66;99190.28;25116;1315;3068187;-64
2022/09/30 02:43:26;;;;;;;27.20;15.70;;;;;;;16.72;85.97;99191.76;25048;1315;3026731;-61
2022/09/30 02:46:06;;;;;;;29.30;15.00;;;;;;;16.41;87.83;99199.80;25105;1315;3026820;-61
2022/09/30 02:48:59;;;;;;;16.80;8.00;;;;;;;16.29;89.31;99201.74;25091;1315;3053055;-62
2022/09/30 02:51:40;;;;;;;23.70;9.70;;;;;;;16.86;87.35;99195.98;25103;1315;3058696;-61
2022/09/30 02:54:22;;;;;;;20.20;12.40;;;;;;;17.32;84.89;99193.44;25081;1315;3051276;-62
2022/09/30 02:57:29;;;;;;;22.40;13.00;;;;;;;17.25;84.31;99188.00;25080;1315;3055965;-62
2022/09/30 02:59:57;;;;;;;21.40;13.30;;;;;;;16.92;86.17;99191.14;25048;1316;3053616;-61
2022/09/30 03:02:26;;;;;;;18.10;7.60;;;;;;;16.75;87.73;99194.48;25073;1315;3026561;-62
2022/09/30 03:04:55;;;;;;;23.10;9.80;;;;;;;17.14;86.74;99197.14;25019;1315;3055555;-64
2022/09/30 03:07:24;;;;;;;16.40;10.30;;;;;;;17.44;85.70;99192.67;25051;1315;3028956;-65
2022/09/30 03:09:57;;;;;;;21.70;10.40;;;;;;;17.39;85.28;99197.39;25110;1315;3049227;-63
2022/09/30 03:12:52;;;;;;;22.50;11.90;;;;;;;17.18;86.33;99200.02;25072;1315;3056035;-62
2022/09/30 03:15:44;;;;;;;24.00;10.50;;;;;;;16.99;87.62;99202.75;25048;1315;3053676;-62
2022/09/30 03:18:39;;;;;;;10.20;5.30;;;;;;;16.85;88.93;99199.61;25042;1315;3069912;-61
2022/09/30 03:21:23;;;;;;;10.30;6.30;;;;;;;17.51;86.68;99197.60;25061;1315;3051821;-62
2022/09/30 03:24:20;;;;;;;14.50;8.40;;;;;;;17.81;84.10;99198.76;25049;1315;3051983;-62
2022/09/30 03:26:52;;;;;;;13.70;8.40;;;;;;;17.57;85.55;99205.39;25091;1315;3052945;-63
2022/09/30 03:29:42;;;;;;;16.40;9.50;;;;;;;17.48;85.95;99206.98;25086;1315;3026302;-62
2022/09/30 03:32:19;;;;;;;11.80;5.10;;;;;;;17.27;87.52;99210.65;25106;1315;3050182;-62
2022/09/30 03:35:02;;;;;;;13.70;7.10;;;;;;;17.75;85.76;99203.40;25048;1315;3055304;-59
2022/09/30 03:37:35;;;;;;;12.50;7.60;;;;;;;18.00;84.20;99204.39;25084;1315;3051730;-60
2022/09/30 03:40:10;;;;;;;13.90;8.50;;;;;;;17.87;84.76;99206.48;25028;1315;3026634;-64
2022/09/30 03:43:02;;;;;;;17.00;9.40;;;;;;;17.65;85.82;99213.92;25036;1315;3049359;-64
2022/09/30 03:45:42;;;;;;;15.30;9.20;;;;;;;17.36;87.44;99220.15;25054;1318;3054887;-62
2022/09/30 03:48:11;;;;;;;8.50;5.20;;;;;;;17.31;88.09;99221.95;25111;1315;3052648;-63
2022/09/30 03:50:40;;;;;;;10.50;5.60;;;;;;;17.73;86.81;99219.16;24966;1315;3026595;-63
2022/09/30 03:53:11;;;;;;;14.20;6.80;;;;;;;18.08;84.58;99210.36;25071;1315;3026472;-64
2022/09/30 03:55:49;;;;;;;12.10;6.90;;;;;;;18.11;83.84;99208.48;25102;1315;3052757;-64
2022/09/30 03:58:18;;;;;;;11.20;7.40;;;;;;;17.89;85.08;99215.66;25059;1315;3056255;-63
2022/09/30 04:00:49;;;;;;;13.60;8.30;;;;;;;17.86;85.12;99217.93;25085;1315;3026679;-62
2022/09/30 04:03:20;;;;;;;8.40;4.40;;;;;;;17.53;86.96;99219.58;25100;1315;3026120;-63
2022/09/30 04:05:50;;;;;;;11.00;6.20;;;;;;;18.09;85.11;99216.98;25012;1315;3028484;-62
2022/09/30 04:08:19;;;;;;;11.50;7.00;;;;;;;18.38;83.24;99216.69;25066;1315;3026546;-62
2022/09/30 04:10:47;;;;;;;12.80;7.90;;;;;;;18.31;83.46;99220.20;25041;1315;3054871;-64
2022/09/30 04:13:16;;;;;;;19.90;8.40;;;;;;;18.06;84.42;99230.05;25094;1315;3027587;-63
2022/09/30 04:15:52;;;;;;;15.40;8.40;;;;;;;18.03;84.41;99232.45;25005;1315;3051352;-65
2022/09/30 04:18:21;;;;;;;6.90;4.20;;;;;;;17.79;86.05;99230.10;25101;1315;3053617;-63
2022/09/30 04:20:50;;;;;;;11.40;6.20;;;;;;;18.22;85.03;99237.20;25042;1315;3028865;-62
2022/09/30 04:23:20;;;;;;;13.60;6.40;;;;;;;18.47;83.39;99236.80;25059;1315;3052908;-64
2022/09/30 04:25:53;;;;;;;11.20;7.60;;;;;;;18.42;83.70;99235.51;25120;1315;3028820;-63
2022/09/30 04:28:23;;;;;;;12.60;8.20;;;;;;;18.21;84.47;99236.27;24410;1315;4231286;-62
2022/09/30 04:30:52;;;;;;;13.10;6.70;;;;;;;18.03;85.35;99232.44;25013;1315;3026483;-63
2022/09/30 04:33:21;;;;;;;6.60;3.60;;;;;;;17.92;85.86;99229.06;25135;1315;3026077;-63
2022/09/30 04:35:54;;;;;;;12.90;5.30;;;;;;;18.42;84.84;99225.14;25029;1315;3057565;-65
2022/09/30 04:38:25;;;;;;;8.70;6.00;;;;;;;18.63;83.28;99224.04;25064;1317;3049832;-63
2022/09/30 04:40:54;;;;;;;9.70;5.50;;;;;;;18.70;82.94;99220.67;25033;1315;3026292;-64
2022/09/30 04:43:24;;;;;;;13.60;8.40;;;;;;;18.50;83.42;99222.08;25056;1315;3058724;-63
2022/09/30 04:45:53;;;;;;;11.70;7.40;;;;;;;18.31;84.20;99217.91;25141;1315;3026326;-65
2022/09/30 04:48:22;;;;;;;12.20;4.80;;;;;;;18.16;84.82;99216.34;25034;1315;3029568;-64
2022/09/30 04:50:51;;;;;;;11.40;5.60;;;;;;;18.29;85.61;99224.34;25079;1315;3058484;-62
2022/09/30 04:53:20;;;;;;;9.50;5.90;;;;;;;18.79;83.23;99226.54;25046;1315;3026370;-64
2022/09/30 04:55:49;;;;;;;9.40;6.50;;;;;;;18.75;83.02;99236.23;25125;1315;3053610;-64
2022/09/30 04:58:18;;;;;;;16.50;9.90;;;;;;;18.69;83.43;99235.30;25024;1315;3026666;-62
2022/09/30 05:00:47;;;;;;;18.80;11.70;;;;;;;18.44;84.21;99235.41;25069;1315;3026452;-62
2022/09/30 05:03:22;;;;;;;10.20;5.30;;;;;;;18.05;86.56;99236.40;25054;1316;3054626;-64
2022/09/30 05:05:51;;;;;;;15.20;7.60;;;;;;;18.63;85.48;99231.64;25105;1315;3026251;-64
2022/09/30 05:08:22;;;;;;;20.60;11.30;;;;;;;18.79;83.76;99225.51;25112;1315;3053792;-63
2022/09/30 05:11:01;;;;;;;20.80;12.80;;;;;;;18.80;83.67;99224.69;25049;1316;3028094;-64
2022/09/30 05:13:33;;;;;;;29.00;16.60;;;;;;;18.61;84.31;99231.70;25080;1315;3049489;-65
2022/09/30 05:16:03;;;;;;;28.60;15.30;;;;;;;18.34;85.61;99243.88;25135;1315;3026640;-64
2022/09/30 05:18:34;;;;;;;19.20;9.00;;;;;;;18.21;86.51;99251.86;25052;1315;3026335;-64
2022/09/30 05:21:04;;;;;;;23.10;11.50;;;;;;;18.62;85.51;99251.77;25038;1315;3027616;-63
2022/09/30 05:23:33;;;;;;;25.30;14.00;;;;;;;18.96;83.67;99241.96;25048;1315;3026839;-62
2022/09/30 05:26:02;;;;;;;39.50;20.40;;;;;;;18.81;83.52;99249.94;25066;1315;3026409;-63
2022/09/30 05:28:32;;;;;;;33.00;18.20;;;;;;;18.42;85.67;99249.30;25068;1315;3056717;-65
2022/09/30 05:31:05;;;;;;;37.70;20.10;;;;;;;18.28;86.37;99246.05;25112;1315;3027577;-66
2022/09/30 05:33:34;;;;;;;26.30;12.60;;;;;;;18.04;87.96;99260.00;25116;1315;3030333;-63
2022/09/30 05:36:07;;;;;;;23.40;14.10;;;;;;;18.26;87.68;99275.15;25072;1316;3026563;-64
2022/09/30 05:38:37;;;;;;;25.40;14.40;;;;;;;18.58;86.24;99278.75;25038;1316;3071470;-63
2022/09/30 05:41:11;;;;;;;33.70;17.90;;;;;;;18.38;86.54;99294.88;25112;1316;3026405;-64
2022/09/30 05:43:44;;;;;;;27.50;17.00;;;;;;;17.97;88.98;99299.78;25102;1317;3051131;-65
2022/09/30 05:46:16;;;;;;;16.70;8.60;;;;;;;17.80;90.00;99294.50;25106;1315;3026389;-63
2022/09/30 05:48:46;;;;;;;15.60;9.10;;;;;;;18.06;89.35;99284.66;25034;1317;3048233;-62
2022/09/30 05:52:15;;;;;;;17.70;9.70;;;;;;;18.28;88.45;99285.96;31428;1318;3026561;-65
2022/09/30 05:54:44;;;;;;;18.40;12.60;;;;;;;18.37;87.52;99295.92;24940;1321;3027429;-65
2022/09/30 05:57:13;;;;;;;14.50;9.60;;;;;;;18.25;87.45;99306.61;24980;1318;3027766;-63
2022/09/30 05:59:42;;;;;;;12.10;5.90;;;;;;;17.86;89.73;99321.44;24967;1318;3051131;-63
2022/09/30 06:02:12;;;;;;;13.20;7.20;;;;;;;18.20;88.96;99323.37;24978;1318;3026826;-64
2022/09/30 06:04:41;;;;;;;12.70;7.00;;;;;;;18.35;87.73;99324.44;24440;1318;3908368;-64
2022/09/30 06:07:10;;;;;;;16.10;8.20;;;;;;;18.37;87.08;99311.83;25133;1315;3026636;-64
2022/09/30 06:09:39;;;;;;;11.30;7.60;;;;;;;18.25;87.31;99289.36;25015;1317;3050044;-65
2022/09/30 06:12:08;;;;;;;14.60;8.40;;;;;;;18.00;88.80;99269.03;25070;1316;3026416;-64
2022/09/30 06:14:38;;;;;;;9.10;4.10;;;;;;;17.66;90.73;99270.66;25100;1318;3028387;-65
2022/09/30 06:17:07;;;;;;;7.10;4.90;;;;;;;18.00;90.14;99258.58;25087;1317;3027282;-65
2022/09/30 06:19:36;;;;;;;10.70;6.60;;;;;;;18.11;89.04;99246.81;24990;1316;3067921;-65
2022/09/30 06:22:06;;;;;;;11.10;7.00;;;;;;;17.95;89.22;99258.20;25067;1317;3026422;-65
2022/09/30 06:24:36;;;;;;;9.20;7.20;;;;;;;17.79;90.16;99236.82;25012;1317;3026169;-63
2022/09/30 06:27:05;;;;;;;6.80;4.10;;;;;;;17.52;91.61;99229.39;25058;1315;3068520;-68
2022/09/30 06:29:34;;;;;;;10.40;5.80;;;;;;;17.61;91.75;99228.22;25131;1315;3026871;-68
2022/09/30 06:32:03;;;;;;;10.10;5.80;;;;;;;17.68;90.89;99240.17;25142;1315;3050019;-63
2022/09/30 06:34:32;;;;;;;8.00;6.40;;;;;;;17.68;89.95;99245.52;25136;1315;3027514;-65
2022/09/30 06:37:02;;;;;;;8.90;6.40;;;;;;;17.59;89.42;99241.52;24999;1316;3026582;-63
2022/09/30 06:39:31;;;;;;;7.20;4.30;;;;;;;17.55;89.96;99241.34;25150;1315;3053535;-63
2022/09/30 06:42:00;;;;;;;7.60;5.40;;;;;;;17.73;88.83;99246.26;25084;1315;3026435;-63
2022/09/30 06:44:28;;;;;;;8.50;5.60;;;;;;;17.93;87.87;99245.31;25077;1315;3055042;-64
2022/09/30 06:46:59;;;;;;;9.20;5.90;;;;;;;17.97;87.59;99248.05;25092;1315;3027215;-66
2022/09/30 06:49:28;;;;;;;11.90;6.10;;;;;;;17.78;87.56;99253.77;25109;1314;3051704;-64
2022/09/30 06:51:59;;;;;;;6.50;3.80;;;;;;;17.66;87.97;99262.46;25049;1315;3027106;-65
2022/09/30 06:54:29;;;;;;;8.30;5.40;;;;;;;18.15;86.49;99264.48;25081;1317;3056760;-66
2022/09/30 06:56:58;;;;;;;10.10;6.00;;;;;;;18.22;86.51;99278.89;25084;1317;3026293;-67
2022/09/30 06:59:27;;;;;;;10.20;7.20;;;;;;;18.16;86.77;99281.02;25102;1315;3052479;-67
2022/09/30 07:01:56;;;;;;;8.60;6.20;;;;;;;17.78;88.65;99282.98;25110;1315;3026600;-69
2022/09/30 07:04:26;;;;;;;6.30;3.40;;;;;;;17.83;88.81;99293.64;25090;1315;3027559;-67
2022/09/30 07:06:55;;;;;;;7.30;4.90;;;;;;;18.11;87.64;99290.51;25094;1315;3026848;-68
2022/09/30 07:09:24;;;;;;;7.80;4.90;;;;;;;18.19;86.05;99292.98;25118;1315;3055525;-67
2022/09/30 07:11:53;;;;;;;11.50;5.40;;;;;;;18.21;86.12;99282.17;25112;1315;3026300;-68
2022/09/30 07:14:22;;;;;;;8.80;5.70;;;;;;;18.13;86.47;99283.96;25134;1315;3026616;-67
2022/09/30 07:16:52;;;;;;;6.60;3.60;;;;;;;18.08;86.96;99295.66;25116;1315;3055148;-67
2022/09/30 07:19:21;;;;;;;11.80;5.70;;;;;;;18.37;86.09;99296.05;25078;1315;3026546;-68
2022/09/30 07:21:50;;;;;;;8.60;5.10;;;;;;;18.81;83.64;99301.79;25116;1316;3028118;-68
2022/09/30 07:24:19;;;;;;;7.90;5.10;;;;;;;18.85;82.48;99311.48;25122;1316;3026650;-66
2022/09/30 07:26:48;;;;;;;8.60;5.70;;;;;;;18.72;82.89;99319.81;25043;1316;3049248;-65
2022/09/30 07:29:18;;;;;;;7.80;5.70;;;;;;;18.64;83.04;99333.95;25080;1315;3026266;-65
2022/09/30 07:31:46;;;;;;;5.60;2.70;;;;;;;18.39;84.02;99346.04;25221;1314;3026592;-64
2022/09/30 07:34:15;;;;;;;5.20;3.20;;;;;;;18.80;82.50;99343.59;25046;1315;3048214;-68
2022/09/30 07:36:45;;;;;;;6.20;3.00;;;;;;;18.92;79.12;99346.52;25115;1315;3026698;-68
2022/09/30 07:39:14;;;;;;;5.00;3.60;;;;;;;19.14;77.13;99342.44;25136;1315;3058835;-65
2022/09/30 07:41:44;;;;;;;4.50;3.00;;;;;;;18.95;76.41;99332.73;25075;1315;3026232;-67
2022/09/30 07:44:13;;;;;;;5.50;3.10;;;;;;;18.94;76.70;99323.29;25128;1315;3053943;-68
2022/09/30 07:46:43;;;;;;;4.10;3.40;;;;;;;18.84;77.45;99315.81;25201;1315;3026350;-68
2022/09/30 07:49:14;;;;;;;3.50;1.70;;;;;;;18.63;78.61;99324.63;25191;1315;3027309;-67
2022/09/30 07:51:44;;;;;;;2.50;1.90;;;;;;;19.13;77.36;99327.55;25155;1315;3026994;-65
2022/09/30 07:54:15;;;;;;;3.50;2.50;;;;;;;19.42;75.67;99327.52;25099;1315;3026701;-65
2022/09/30 07:56:44;;;;;;;3.90;2.40;;;;;;;19.46;75.59;99333.73;25115;1315;3027489;-68
2022/09/30 07:59:14;;;;;;;3.10;2.20;;;;;;;19.38;76.51;99337.03;25098;1315;3026334;-68
2022/09/30 08:01:44;;;;;;;4.90;3.30;;;;;;;19.35;75.63;99328.83;25124;1315;3027042;-67
2022/09/30 08:04:13;;;;;;;3.30;2.30;;;;;;;19.19;75.89;99335.86;25106;1315;3026349;-67
2022/09/30 08:06:46;;;;;;;5.50;2.70;;;;;;;19.15;75.41;99329.03;25105;1315;3048261;-65
2022/09/30 08:09:16;;;;;;;2.20;1.10;;;;;;;19.20;75.49;99330.64;25174;1315;3027490;-67
2022/09/30 08:11:46;;;;;;;2.00;1.40;;;;;;;19.66;72.57;99328.84;25144;1315;3026658;-68
2022/09/30 08:14:23;;;;;;;2.30;1.60;;;;;;;20.15;70.37;99334.28;25101;1315;3026223;-65
2022/09/30 08:16:54;;;;;;;2.90;1.60;;;;;;;20.20;69.41;99343.69;25052;1315;3050122;-64
2022/09/30 08:19:23;;;;;;;3.80;1.70;;;;;;;19.90;69.35;99349.08;25154;1315;3026702;-67
2022/09/30 08:21:54;;;;;;;3.70;1.70;;;;;;;19.81;69.53;99347.92;25116;1315;3026669;-65
2022/09/30 08:24:23;;;;;;;4.60;2.10;;;;;;;19.70;70.12;99346.64;25131;1315;3026431;-66
2022/09/30 08:26:52;;;;;;;3.40;2.20;;;;;;;19.76;70.14;99346.23;25079;1315;3052386;-69
2022/09/30 08:29:21;;;;;;;2.60;1.80;;;;;;;19.66;70.97;99349.71;25089;1315;3026111;-67
2022/09/30 08:31:50;;;;;;;2.30;1.60;;;;;;;19.60;71.56;99361.30;25070;1315;3049364;-66
2022/09/30 08:34:20;;;;;;;2.00;1.10;;;;;;;19.57;71.05;99369.38;25105;1315;3026665;-66
2022/09/30 08:36:49;;;;;;;2.60;0.80;;;;;;;20.00;71.50;99367.75;25145;1315;3026560;-65
2022/09/30 08:39:19;;;;;;;3.10;1.40;;;;;;;20.34;71.15;99362.40;25086;1315;3026817;-64
2022/09/30 08:42:01;;;;;;;7.80;3.00;;;;;;;20.26;71.52;99369.42;25120;1315;3026599;-64
2022/09/30 08:44:38;;;;;;;3.30;1.70;;;;;;;19.83;73.05;99383.71;25117;1315;3050856;-64
2022/09/30 08:47:29;;;;;;;3.00;1.90;;;;;;;19.57;74.54;99388.48;25111;1315;3069011;-66
2022/09/30 08:50:23;;;;;;;2.40;1.80;;;;;;;19.42;76.01;99377.48;25112;1315;3051432;-63
2022/09/30 08:52:58;;;;;;;3.40;2.10;;;;;;;19.27;76.40;99376.27;25040;1315;3056840;-64
2022/09/30 08:55:42;;;;;;;2.30;1.10;;;;;;;19.18;75.76;99380.86;25086;1315;3055698;-62
2022/09/30 08:58:34;;;;;;;2.20;1.20;;;;;;;19.57;73.67;99378.69;25074;1318;3059079;-64
2022/09/30 09:01:09;;;;;;;5.30;1.70;;;;;;;20.04;71.58;99375.23;25081;1316;3050214;-63
2022/09/30 09:03:39;;;;;;;2.40;1.50;;;;;;;19.93;71.66;99380.46;25050;1316;3055230;-65
2022/09/30 09:06:17;;;;;;;3.20;1.80;;;;;;;19.80;72.22;99380.63;25120;1316;3027362;-66
2022/09/30 09:08:50;;;;;;;3.40;1.90;;;;;;;19.56;73.21;99381.76;25124;1315;3071265;-68
2022/09/30 09:11:45;;;;;;;6.50;2.60;;;;;;;19.22;75.03;99400.34;25140;1316;3051760;-64
2022/09/30 09:14:42;;;;;;;3.80;2.30;;;;;;;18.75;77.36;99427.73;25174;1315;3054833;-65
2022/09/30 09:17:17;;;;;;;2.20;1.20;;;;;;;19.02;76.26;99430.83;25141;1315;3055084;-65
2022/09/30 09:19:48;;;;;;;3.60;1.60;;;;;;;19.46;75.86;99422.33;25058;1315;3058793;-66
2022/09/30 09:22:17;;;;;;;3.60;2.30;;;;;;;19.48;76.44;99426.61;25133;1315;3026337;-65
2022/09/30 09:24:46;;;;;;;4.40;2.10;;;;;;;19.51;76.60;99433.60;25065;1315;3026956;-63
2022/09/30 09:27:40;;;;;;;3.20;2.30;;;;;;;19.56;76.15;99435.05;25099;1316;3058564;-65
2022/09/30 09:30:11;;;;;;;3.80;2.90;;;;;;;19.37;76.95;99437.48;25096;1314;3052459;-63
2022/09/30 09:32:41;;;;;;;4.20;1.40;;;;;;;19.22;77.67;99437.52;25172;1315;3026700;-64
2022/09/30 09:35:14;;;;;;;2.40;1.80;;;;;;;19.46;77.77;99433.70;25186;1315;3028725;-64
2022/09/30 09:41:28;;;;;;;4.40;2.20;;;;;;;19.91;76.26;99429.81;25068;1315;3051957;-66
2022/09/30 09:44:28;;;;;;;9.00;3.60;;;;;;;19.56;77.90;99437.38;25171;1315;3050867;-64
2022/09/30 09:47:04;;;;;;;7.50;4.00;;;;;;;19.25;79.50;99430.66;25108;1316;3055433;-64
2022/09/30 09:49:38;;;;;;;5.20;2.00;;;;;;;19.07;81.05;99428.10;25114;1315;3057401;-65
2022/09/30 09:52:14;;;;;;;7.50;2.90;;;;;;;19.53;80.44;99424.71;25013;1318;3029978;-68
2022/09/30 09:54:49;;;;;;;5.80;3.30;;;;;;;19.87;79.42;99431.50;25143;1316;3055159;-65
2022/09/30 09:57:24;;;;;;;5.30;3.90;;;;;;;19.80;79.85;99427.91;25071;1316;3049884;-65
2022/09/30 10:03:18;;;;;;;6.90;5.20;;;;;;;19.30;82.98;99427.83;25154;1315;3051519;-63
2022/09/30 10:06:08;;;;;;;4.50;2.10;;;;;;;19.25;83.54;99415.34;25080;1316;3055309;-67
2022/09/30 10:08:52;;;;;;;7.50;3.30;;;;;;;19.89;81.61;99398.01;25083;1315;3055804;-67
2022/09/30 10:11:45;;;;;;;7.90;3.90;;;;;;;20.24;80.14;99392.73;25058;1318;3057041;-64
2022/09/30 10:14:20;;;;;;;7.80;4.00;;;;;;;20.10;80.39;99388.13;25133;1315;3026899;-64
2022/09/30 10:16:48;;;;;;;6.50;5.20;;;;;;;19.92;81.22;99388.73;25047;1315;3026692;-65
2022/09/30 10:19:23;;;;;;;6.80;5.00;;;;;;;19.77;82.08;99387.92;25093;1316;3026490;-64
2022/09/30 10:22:15;;;;;;;6.40;2.40;;;;;;;19.68;83.11;99391.65;25131;1315;3052014;-63
2022/09/30 10:24:45;;;;;;;5.30;3.30;;;;;;;20.39;81.28;99372.74;25011;1315;3055370;-67
2022/09/30 10:27:27;;;;;;;5.80;3.90;;;;;;;20.80;78.92;99361.95;25091;1315;3026345;-63
2022/09/30 10:29:56;;;;;;;10.30;5.50;;;;;;;20.84;78.72;99363.23;25107;1318;3071521;-64
2022/09/30 10:32:24;;;;;;;6.80;4.80;;;;;;;20.80;78.79;99369.79;25085;1316;3029291;-64
2022/09/30 10:35:05;;;;;;;6.70;4.70;;;;;;;20.76;78.67;99369.95;25142;1315;3053454;-65
2022/09/30 10:37:34;;;;;;;5.80;2.50;;;;;;;20.74;79.26;99381.38;25142;1313;3068212;-68
2022/09/30 10:40:07;;;;;;;8.60;3.90;;;;;;;21.38;78.27;99375.07;25065;1315;3026568;-66
2022/09/30 10:42:38;;;;;;;9.00;4.40;;;;;;;22.02;76.29;99380.44;25187;1315;3026359;-66
2022/09/30 10:45:21;;;;;;;;;;;;;;;22.19;75.45;99382.68;25191;1313;3055792;-65
2022/09/30 10:47:52;;;;;;;9.90;5.60;;;;;;;22.06;75.45;99393.21;25147;1313;3056463;-67
2022/09/30 10:50:26;;;;;;;11.90;6.50;;;;;;;21.95;75.40;99386.30;25079;1313;3027643;-67
2022/09/30 10:53:01;;;;;;;9.30;6.60;;;;;;;21.71;76.47;99394.38;25127;1313;3052158;-65
2022/09/30 10:55:34;;;;;;;4.70;3.00;;;;;;;21.63;77.51;99389.08;25128;1315;3053979;-65
2022/09/30 10:58:23;;;;;;;8.60;5.20;;;;;;;22.22;75.92;99392.69;25089;1316;3070253;-64
2022/09/30 11:01:06;;;;;;;9.10;5.90;;;;;;;22.68;74.58;99403.36;25107;1315;3049691;-64
2022/09/30 11:03:56;;;;;;;13.40;7.00;;;;;;;22.52;75.68;99407.19;25106;1313;3055336;-65
2022/09/30 11:06:25;;;;;;;9.40;6.60;;;;;;;22.19;76.86;99409.41;25101;1313;3055527;-65
2022/09/30 11:09:06;;;;;;;12.90;8.50;;;;;;;21.78;78.69;99410.65;25086;1315;3026091;-66
2022/09/30 11:11:41;;;;;;;5.30;3.80;;;;;;;21.74;79.90;99401.50;25107;1313;3052541;-65
2022/09/30 11:14:41;;;;;;;9.70;5.60;;;;;;;22.38;77.33;99389.68;25075;1315;3026451;-65
2022/09/30 11:17:18;;;;;;;11.30;5.80;;;;;;;22.75;74.60;99378.02;25143;1313;3052448;-63
2022/09/30 11:19:55;;;;;;;8.40;6.40;;;;;;;22.83;74.15;99372.36;25101;1313;3069880;-63
2022/09/30 11:22:51;;;;;;;12.50;7.40;;;;;;;22.60;75.13;99374.94;25098;1315;3048860;-67
2022/09/30 11:25:58;;;;;;;14.50;7.70;;;;;;;22.31;76.05;99362.39;25047;1318;3052717;-68
2022/09/30 11:28:43;;;;;;;8.10;4.10;;;;;;;22.45;75.56;99359.46;25114;1318;3053712;-67
2022/09/30 11:31:47;;;;;;;8.10;4.70;;;;;;;23.11;73.92;99364.89;25128;1313;3058574;-68
2022/09/30 11:34:22;;;;;;;6.60;4.90;;;;;;;23.29;70.72;99362.48;25014;1317;3052634;-68
2022/09/30 11:37:07;;;;;;;8.20;5.40;;;;;;;23.31;70.06;99364.16;25138;1313;3053303;-64
2022/09/30 11:39:52;;;;;;;9.80;6.10;;;;;;;23.21;70.14;99357.70;25111;1313;3055351;-64
2022/09/30 11:42:43;;;;;;;10.10;6.30;;;;;;;23.02;71.48;99357.65;25110;1313;3071222;-65
2022/09/30 11:45:52;;;;;;;10.10;6.30;;;;;;;22.70;72.07;99353.23;25129;1315;3047805;-65
2022/09/30 11:48:45;;;;;;;11.10;6.40;;;;;;;22.20;74.14;99349.58;25024;1318;3052217;-67
2022/09/30 11:51:17;;;;;;;8.40;3.60;;;;;;;22.33;74.95;99349.73;25061;1316;3053058;-65
2022/09/30 11:54:03;;;;;;;10.10;5.00;;;;;;;23.17;72.47;99347.89;25183;1315;3026698;-66
2022/09/30 11:56:54;;;;;;;7.00;5.00;;;;;;;23.75;70.32;99346.59;25009;1315;3051678;-63